Catawba Island, Ohio
Current Conditions -  °F | °C
As of 7:13 AM on Friday 24 Oct 2014 (Local Time) from KPCW Reporting Station
Clear Clear  
Wind Chill: 45°   Ceiling: Unl
Heat Index: 45°   Visibility: 10mi
Dew Point: 41°   Wind: 0mph
Humidity: 87%   Direction: NA
Pressure: 30.09"   Gusts: NA
Location:  41.507°N, 82.931°W
Report Text: KPCW 241113Z AUTO 00000KT 10SM CLR 07/05 A3009 RMK AO2 $
Loading
Personal Weather Stations






























Interactive Weather Map
Tropical Storm Tracking
New forecast layout! Learn more

10-Day Weather Forecast

Advertisements
Track Severe Weather on mobile